createdAt,value
2023-03-12T00:00:09.066Z,8.98
2023-03-12T00:02:36.521Z,8.80
2023-03-12T00:05:04.159Z,7.88
2023-03-12T00:07:31.493Z,7.40
2023-03-12T00:09:58.738Z,7.28
2023-03-12T00:12:25.940Z,6.88
2023-03-12T00:14:53.247Z,7.05
2023-03-12T00:17:20.498Z,5.95
2023-03-12T00:19:51.751Z,6.40
2023-03-12T00:22:22.992Z,6.85
2023-03-12T00:24:53.796Z,6.53
2023-03-12T00:27:21.101Z,6.18
2023-03-12T00:29:49.025Z,6.75
2023-03-12T00:32:16.397Z,6.95
2023-03-12T00:34:43.703Z,6.32
2023-03-12T00:37:11.012Z,7.53
2023-03-12T00:39:38.189Z,6.43
2023-03-12T00:42:05.555Z,6.97
2023-03-12T00:44:32.852Z,5.72
2023-03-12T00:47:00.199Z,6.18
2023-03-12T00:49:27.577Z,5.80
2023-03-12T00:51:54.878Z,6.13
2023-03-12T00:54:22.235Z,6.30
2023-03-12T00:56:49.761Z,6.00
2023-03-12T00:59:17.216Z,7.05
2023-03-12T01:01:44.815Z,6.32
2023-03-12T01:04:12.363Z,5.88
2023-03-12T01:06:39.797Z,6.07
2023-03-12T01:09:08.105Z,5.88
2023-03-12T01:11:36.066Z,5.85
2023-03-12T01:14:04.006Z,6.30
2023-03-12T01:16:31.508Z,6.88
2023-03-12T01:18:59.030Z,7.50
2023-03-12T01:21:26.440Z,7.55
2023-03-12T01:23:53.728Z,8.10
2023-03-12T01:26:21.155Z,7.63
2023-03-12T01:28:48.522Z,8.25
2023-03-12T01:31:17.665Z,8.60
2023-03-12T01:33:45.230Z,8.27
2023-03-12T01:36:30.941Z,7.68
2023-03-12T01:38:59.759Z,6.85
2023-03-12T01:41:28.162Z,6.75
2023-03-12T01:43:55.544Z,7.30
2023-03-12T01:46:28.890Z,7.10
2023-03-12T01:48:58.549Z,6.20
2023-03-12T01:51:31.240Z,7.72
2023-03-12T01:54:00.404Z,7.00
2023-03-12T01:56:29.056Z,6.38
2023-03-12T01:58:57.978Z,6.93
2023-03-12T02:01:25.753Z,6.35
2023-03-12T02:03:54.422Z,6.63
2023-03-12T02:06:43.815Z,7.35
2023-03-12T02:09:12.691Z,6.90
2023-03-12T02:11:39.970Z,7.53
2023-03-12T02:14:07.425Z,6.57
2023-03-12T02:16:34.680Z,9.73
2023-03-12T02:19:02.447Z,8.10
2023-03-12T02:21:33.774Z,7.45
2023-03-12T02:24:07.867Z,8.77
2023-03-12T02:26:36.285Z,6.85
2023-03-12T02:29:04.103Z,7.35
2023-03-12T02:31:34.417Z,7.07
2023-03-12T02:34:01.823Z,8.40
2023-03-12T02:36:29.244Z,8.45
2023-03-12T02:38:57.150Z,9.00
2023-03-12T02:41:24.400Z,9.55
2023-03-12T02:43:57.695Z,8.20
2023-03-12T02:46:25.100Z,9.77
2023-03-12T02:48:53.444Z,9.85
2023-03-12T02:51:20.793Z,8.98
2023-03-12T02:53:50.184Z,9.63
2023-03-12T02:56:17.449Z,9.63
2023-03-12T02:58:45.103Z,8.73
2023-03-12T03:01:12.600Z,9.77
2023-03-12T03:03:39.922Z,9.13
2023-03-12T03:06:07.164Z,9.98
2023-03-12T03:08:34.481Z,10.05
2023-03-12T03:11:03.158Z,9.85
2023-03-12T03:13:30.928Z,9.35
2023-03-12T03:16:04.470Z,9.60
2023-03-12T03:18:32.101Z,9.20
2023-03-12T03:21:04.856Z,9.43
2023-03-12T03:23:32.580Z,11.43
2023-03-12T03:25:59.909Z,10.18
2023-03-12T03:28:28.655Z,9.73
2023-03-12T03:31:01.874Z,11.38
2023-03-12T03:33:30.028Z,10.45
2023-03-12T03:35:59.635Z,10.38
2023-03-12T03:38:29.017Z,11.40
2023-03-12T03:40:56.442Z,10.43
2023-03-12T03:43:23.640Z,11.43
2023-03-12T03:46:05.493Z,11.23
2023-03-12T03:48:33.170Z,9.90
2023-03-12T03:51:01.917Z,9.88
2023-03-12T03:53:29.369Z,7.75
2023-03-12T03:55:56.573Z,7.45
2023-03-12T03:58:23.866Z,7.13
2023-03-12T04:00:51.343Z,6.82
2023-03-12T04:03:18.699Z,6.35
2023-03-12T04:05:46.029Z,5.78
2023-03-12T04:08:14.071Z,7.88
2023-03-12T04:10:41.848Z,8.13
2023-03-12T04:13:09.121Z,9.15
2023-03-12T04:15:36.310Z,9.30
2023-03-12T04:18:03.625Z,9.75
2023-03-12T04:20:30.969Z,8.73
2023-03-12T04:22:58.567Z,10.50
2023-03-12T04:25:25.799Z,9.38
2023-03-12T04:27:53.014Z,9.77
2023-03-12T04:30:20.210Z,9.77
2023-03-12T04:32:47.614Z,8.48
2023-03-12T04:35:14.874Z,9.35
2023-03-12T04:37:42.090Z,8.65
2023-03-12T04:40:09.954Z,9.35
2023-03-12T04:42:37.372Z,9.45
2023-03-12T04:45:06.240Z,8.55
2023-03-12T04:47:34.250Z,10.55
2023-03-12T04:50:01.669Z,11.07
2023-03-12T04:52:29.214Z,10.50
2023-03-12T04:54:56.439Z,11.30
2023-03-12T04:57:23.682Z,10.80
2023-03-12T04:59:51.192Z,10.98
2023-03-12T05:02:18.497Z,9.27
2023-03-12T05:04:45.751Z,10.10
2023-03-12T05:07:12.975Z,10.00
2023-03-12T05:09:40.249Z,8.98
2023-03-12T05:12:07.616Z,9.10
2023-03-12T05:14:34.847Z,8.95
2023-03-12T05:17:02.088Z,9.57
2023-03-12T05:19:29.252Z,8.80
2023-03-12T05:21:56.473Z,9.98
2023-03-12T05:24:23.679Z,9.15
2023-03-12T05:26:51.029Z,9.32
2023-03-12T05:29:18.242Z,9.90
2023-03-12T05:31:45.500Z,9.27
2023-03-12T05:34:13.678Z,9.75
2023-03-12T05:36:41.076Z,10.18
2023-03-12T05:39:08.222Z,11.35
2023-03-12T05:41:35.462Z,10.43
2023-03-12T05:44:02.664Z,10.60
2023-03-12T05:46:30.025Z,10.02
2023-03-12T05:48:57.377Z,9.88
2023-03-12T05:51:24.517Z,10.48
2023-03-12T05:53:51.760Z,9.80
2023-03-12T05:56:19.365Z,10.40
2023-03-12T05:58:49.294Z,10.68
2023-03-12T06:01:21.770Z,10.93
2023-03-12T06:03:49.090Z,9.52
2023-03-12T06:06:16.346Z,10.23
2023-03-12T06:08:43.981Z,9.27
2023-03-12T06:11:11.512Z,11.25
2023-03-12T06:13:38.767Z,9.65
2023-03-12T06:16:08.075Z,10.32
2023-03-12T06:18:35.939Z,10.23
2023-03-12T06:21:10.554Z,10.68
2023-03-12T06:23:37.861Z,9.95
2023-03-12T06:26:05.153Z,9.80
2023-03-12T06:28:32.354Z,8.88
2023-03-12T06:30:59.585Z,9.45
2023-03-12T06:33:26.881Z,7.75
2023-03-12T06:35:55.493Z,8.48
2023-03-12T06:38:23.116Z,9.07
2023-03-12T06:40:57.816Z,6.03
2023-03-12T06:43:25.972Z,6.60
2023-03-12T06:45:53.254Z,9.38
2023-03-12T06:48:20.473Z,9.40
2023-03-12T06:50:47.715Z,10.65
2023-03-12T06:53:14.888Z,9.48
2023-03-12T06:55:42.098Z,9.57
2023-03-12T06:58:09.340Z,9.20
2023-03-12T07:00:36.909Z,8.27
2023-03-12T07:03:04.272Z,8.68
2023-03-12T07:05:31.467Z,8.35
2023-03-12T07:07:58.735Z,6.22
2023-03-12T07:10:28.149Z,6.00
2023-03-12T07:12:55.690Z,8.00
2023-03-12T07:15:22.987Z,7.60
2023-03-12T07:17:50.304Z,9.18
2023-03-12T07:20:17.662Z,13.48
2023-03-12T07:22:45.034Z,12.32
2023-03-12T07:25:12.350Z,9.23
2023-03-12T07:27:39.654Z,44.35
2023-03-12T07:30:07.293Z,17.73
2023-03-12T07:32:36.843Z,8.85
2023-03-12T07:35:05.060Z,9.02
2023-03-12T07:37:32.321Z,6.70
2023-03-12T07:39:59.746Z,5.00
2023-03-12T07:42:27.100Z,5.20
2023-03-12T07:44:54.371Z,4.88
2023-03-12T07:47:24.463Z,4.05
2023-03-12T07:49:52.213Z,3.80
2023-03-12T07:52:20.279Z,3.17
2023-03-12T07:54:47.967Z,3.33
2023-03-12T07:57:15.434Z,3.10
2023-03-12T07:59:42.826Z,3.00
2023-03-12T08:02:11.037Z,3.40
2023-03-12T08:04:38.498Z,2.85
2023-03-12T08:07:08.732Z,3.22
2023-03-12T08:09:38.759Z,2.92
2023-03-12T08:12:07.585Z,2.72
2023-03-12T08:14:35.111Z,3.40
2023-03-12T08:17:04.097Z,3.50
2023-03-12T08:19:31.559Z,2.92
2023-03-12T08:21:59.301Z,2.75
2023-03-12T08:24:26.849Z,2.90
2023-03-12T08:26:54.529Z,2.75
2023-03-12T08:29:21.942Z,2.58
2023-03-12T08:32:03.808Z,2.53
2023-03-12T08:34:33.088Z,2.72
2023-03-12T08:37:02.285Z,3.08
2023-03-12T08:39:33.102Z,2.92
2023-03-12T08:42:02.840Z,2.60
2023-03-12T08:44:33.254Z,3.05
2023-03-12T08:47:01.291Z,2.90
2023-03-12T08:49:29.259Z,2.92
2023-03-12T08:51:58.165Z,3.72
2023-03-12T08:54:25.809Z,2.78
2023-03-12T08:56:53.718Z,2.80
2023-03-12T08:59:22.537Z,3.08
2023-03-12T09:01:50.362Z,3.22
2023-03-12T09:04:18.521Z,2.67
2023-03-12T09:06:49.412Z,3.60
2023-03-12T09:09:16.921Z,3.50
2023-03-12T09:11:46.793Z,3.53
2023-03-12T09:17:02.458Z,3.30
2023-03-12T09:19:30.158Z,3.15
2023-03-12T09:21:58.041Z,3.33
2023-03-12T09:24:25.505Z,3.28
2023-03-12T09:26:52.918Z,3.22
2023-03-12T09:29:23.516Z,3.15
2023-03-12T09:31:51.415Z,3.10
2023-03-12T09:34:18.888Z,2.50
2023-03-12T09:36:46.262Z,3.30
2023-03-12T09:39:18.646Z,3.10
2023-03-12T09:41:47.939Z,3.03
2023-03-12T09:44:16.872Z,3.10
2023-03-12T09:46:48.022Z,3.50
2023-03-12T09:49:18.695Z,3.33
2023-03-12T09:51:49.449Z,4.03
2023-03-12T09:54:24.054Z,4.15
2023-03-12T09:56:53.412Z,4.45
2023-03-12T09:59:20.830Z,4.38
2023-03-12T10:01:53.375Z,4.72
2023-03-12T10:04:48.674Z,4.53
2023-03-12T10:07:38.806Z,5.22
2023-03-12T10:10:07.559Z,4.65
2023-03-12T10:12:35.076Z,5.53
2023-03-12T10:15:08.626Z,5.32
2023-03-12T10:17:51.154Z,5.20
2023-03-12T10:20:24.589Z,4.37
2023-03-12T10:23:10.532Z,5.03
2023-03-12T10:25:43.976Z,4.25
2023-03-12T10:28:17.599Z,5.90
2023-03-12T10:30:48.749Z,4.97
2023-03-12T10:33:18.640Z,5.85
2023-03-12T10:35:46.261Z,5.07
2023-03-12T10:38:23.402Z,5.00
2023-03-12T10:40:50.837Z,5.55
2023-03-12T10:43:18.106Z,5.72
2023-03-12T10:45:58.232Z,5.45
2023-03-12T10:48:26.481Z,6.03
2023-03-12T10:51:08.099Z,4.65
2023-03-12T10:53:44.856Z,4.60
2023-03-12T10:56:13.643Z,5.00
2023-03-12T10:58:41.121Z,6.13
2023-03-12T11:01:28.687Z,6.07
2023-03-12T11:04:09.918Z,5.78
2023-03-12T11:06:37.271Z,6.30
2023-03-12T11:09:17.196Z,7.80
2023-03-12T11:11:47.492Z,8.90
2023-03-12T11:14:22.499Z,8.93
2023-03-12T11:16:50.418Z,10.27
2023-03-12T11:19:34.285Z,10.55
2023-03-12T11:22:08.973Z,11.30
2023-03-12T11:24:36.380Z,10.73
2023-03-12T11:27:23.476Z,11.45
2023-03-12T11:29:51.607Z,10.25
2023-03-12T11:32:28.776Z,11.57
2023-03-12T11:34:56.560Z,11.18
2023-03-12T11:37:23.890Z,10.90
2023-03-12T11:39:57.344Z,11.23
2023-03-12T11:42:27.705Z,13.52
2023-03-12T11:45:27.557Z,11.70
2023-03-12T11:47:59.833Z,13.02
2023-03-12T11:50:57.168Z,9.20
2023-03-12T11:53:27.542Z,11.10
2023-03-12T11:55:56.641Z,11.57
2023-03-12T11:58:45.079Z,11.25
2023-03-12T12:01:31.191Z,11.15
2023-03-12T12:04:14.092Z,11.68
2023-03-12T12:07:00.263Z,11.13
2023-03-12T12:09:46.175Z,12.02
2023-03-12T12:12:16.545Z,9.90
2023-03-12T12:14:49.831Z,10.25
2023-03-12T12:17:26.354Z,10.10
2023-03-12T12:20:10.123Z,10.85
2023-03-12T12:22:40.484Z,11.10
2023-03-12T12:25:07.931Z,13.82
2023-03-12T12:27:40.028Z,12.88
2023-03-12T12:30:07.298Z,12.65
2023-03-12T12:32:51.696Z,11.77
2023-03-12T12:35:31.797Z,11.13
2023-03-12T12:38:00.920Z,10.35
2023-03-12T12:40:31.756Z,11.10
2023-03-12T12:43:10.800Z,12.55
2023-03-12T12:45:42.354Z,11.10
2023-03-12T12:48:19.781Z,10.55
2023-03-12T12:50:48.495Z,10.75
2023-03-12T12:53:23.921Z,11.80
2023-03-12T12:56:00.722Z,11.35
2023-03-12T12:58:35.791Z,12.85
2023-03-12T13:01:04.439Z,12.10
2023-03-12T13:03:31.840Z,11.20
2023-03-12T13:06:02.337Z,11.25
2023-03-12T13:08:32.668Z,12.80
2023-03-12T13:11:16.336Z,13.48
2023-03-12T13:13:50.473Z,12.52
2023-03-12T13:16:29.081Z,12.57
2023-03-12T13:18:57.551Z,13.18
2023-03-12T13:21:27.478Z,13.88
2023-03-12T13:24:10.304Z,13.20
2023-03-12T13:26:40.614Z,12.63
2023-03-12T13:29:39.034Z,13.80
2023-03-12T13:32:09.603Z,14.15
2023-03-12T13:34:45.710Z,15.13
2023-03-12T13:37:21.409Z,15.63
2023-03-12T13:39:48.641Z,15.52
2023-03-12T13:42:25.162Z,15.73
2023-03-12T13:44:53.879Z,16.40
2023-03-12T13:47:23.516Z,16.88
2023-03-12T13:49:53.782Z,17.05
2023-03-12T13:52:28.929Z,16.48
2023-03-12T13:55:08.568Z,16.80
2023-03-12T13:57:41.252Z,17.75
2023-03-12T14:00:32.251Z,17.55
2023-03-12T14:03:05.319Z,18.63
2023-03-12T14:05:35.071Z,18.15
2023-03-12T14:08:18.602Z,17.58
2023-03-12T14:13:25.416Z,18.92
2023-03-12T14:16:02.017Z,19.98
2023-03-12T14:18:30.520Z,18.90
2023-03-12T14:20:59.549Z,22.58
2023-03-12T14:23:29.476Z,24.48
2023-03-12T14:25:59.592Z,22.42
2023-03-12T14:28:27.783Z,23.98
2023-03-12T14:31:02.882Z,26.55
2023-03-12T14:33:36.636Z,29.45
2023-03-12T14:36:09.696Z,27.17
2023-03-12T14:41:07.090Z,27.92
2023-03-12T14:43:35.478Z,32.15
2023-03-12T14:46:05.081Z,34.10
2023-03-12T14:48:34.084Z,31.73
2023-03-12T14:51:02.252Z,29.20
2023-03-12T14:53:31.359Z,30.05
2023-03-12T14:56:30.263Z,31.95
2023-03-12T14:58:58.345Z,30.85
2023-03-12T15:01:27.724Z,32.13
2023-03-12T15:03:58.155Z,31.35
2023-03-12T15:06:37.379Z,31.83
2023-03-12T15:09:06.499Z,30.98
2023-03-12T15:11:38.010Z,31.33
2023-03-12T15:14:09.997Z,31.15
2023-03-12T15:16:37.475Z,30.35
2023-03-12T15:19:05.167Z,31.42
2023-03-12T15:21:33.782Z,28.85
2023-03-12T15:24:01.216Z,32.45
2023-03-12T15:26:33.261Z,32.10
2023-03-12T15:29:03.201Z,32.78
2023-03-12T15:31:47.059Z,33.58
2023-03-12T15:34:16.431Z,31.83
2023-03-12T15:36:48.097Z,31.25
2023-03-12T15:39:26.686Z,31.45
2023-03-12T15:41:54.582Z,31.73
2023-03-12T15:44:26.416Z,32.95
2023-03-12T15:46:55.333Z,32.20
2023-03-12T15:49:33.460Z,31.95
2023-03-12T15:52:03.186Z,32.88
2023-03-12T15:54:30.974Z,32.63
2023-03-12T15:57:18.999Z,32.28
2023-03-12T15:59:50.683Z,31.92
2023-03-12T16:02:35.444Z,34.03
2023-03-12T16:05:02.732Z,36.40
2023-03-12T16:07:29.935Z,35.63
2023-03-12T16:09:57.254Z,32.30
2023-03-12T16:12:24.485Z,30.42
2023-03-12T16:14:51.808Z,28.52
2023-03-12T16:17:19.646Z,30.65
2023-03-12T16:19:46.892Z,29.25
2023-03-12T16:22:14.110Z,28.30
2023-03-12T16:24:41.313Z,29.33
2023-03-12T16:27:15.856Z,31.70
2023-03-12T16:29:45.162Z,28.77
2023-03-12T16:32:13.534Z,30.23
2023-03-12T16:34:42.506Z,27.20
2023-03-12T16:37:13.433Z,30.75
2023-03-12T16:39:40.697Z,28.58
2023-03-12T16:42:13.931Z,29.58
2023-03-12T16:44:41.479Z,29.45
2023-03-12T16:47:13.495Z,27.90
2023-03-12T16:49:41.268Z,29.20
2023-03-12T16:52:22.272Z,29.80
2023-03-12T16:54:49.836Z,32.05
2023-03-12T16:57:23.911Z,27.25
2023-03-12T16:59:51.252Z,28.05
2023-03-12T17:02:20.535Z,26.35
2023-03-12T17:04:48.854Z,26.15
2023-03-12T17:07:16.285Z,25.10
2023-03-12T17:09:43.506Z,26.48
2023-03-12T17:12:16.681Z,21.10
2023-03-12T17:14:43.969Z,20.95
2023-03-12T17:17:11.100Z,19.85
2023-03-12T17:19:38.286Z,18.35
2023-03-12T17:22:05.741Z,15.15
2023-03-12T17:24:33.008Z,17.67
2023-03-12T17:27:00.725Z,15.30
2023-03-12T17:29:27.982Z,15.35
2023-03-12T17:31:55.234Z,14.82
2023-03-12T17:34:22.395Z,13.45
2023-03-12T17:36:49.649Z,12.65
2023-03-12T17:39:16.864Z,13.20
2023-03-12T17:41:44.095Z,12.90
2023-03-12T17:44:13.715Z,12.48
2023-03-12T17:46:56.665Z,12.10
2023-03-12T17:49:26.393Z,12.45
2023-03-12T17:51:53.792Z,13.57
2023-03-12T17:54:22.232Z,12.13
2023-03-12T17:56:49.550Z,11.82
2023-03-12T17:59:16.831Z,12.85
2023-03-12T18:01:44.080Z,13.38
2023-03-12T18:04:11.494Z,12.73
2023-03-12T18:06:38.793Z,12.23
2023-03-12T18:09:06.113Z,13.38
2023-03-12T18:11:33.331Z,13.95
2023-03-12T18:14:00.560Z,13.68
2023-03-12T18:16:27.908Z,12.80
2023-03-12T18:18:55.139Z,13.63
2023-03-12T18:21:22.385Z,12.25
2023-03-12T18:23:49.654Z,13.15
2023-03-12T18:26:16.993Z,13.27
2023-03-12T18:28:44.340Z,13.95
2023-03-12T18:31:12.538Z,11.70
2023-03-12T18:33:41.817Z,12.77
2023-03-12T18:36:09.435Z,13.65
2023-03-12T18:38:36.721Z,13.15
2023-03-12T18:41:08.704Z,12.43
2023-03-12T18:43:36.392Z,12.88
2023-03-12T18:46:03.751Z,12.43
2023-03-12T18:48:31.019Z,12.35
2023-03-12T18:50:58.510Z,13.13
2023-03-12T18:53:25.759Z,11.98
2023-03-12T18:55:53.216Z,13.10
2023-03-12T18:58:20.755Z,14.25
2023-03-12T19:00:48.251Z,11.65
2023-03-12T19:03:15.570Z,10.55
2023-03-12T19:05:42.857Z,10.05
2023-03-12T19:08:15.033Z,11.43
2023-03-12T19:10:43.121Z,12.83
2023-03-12T19:13:10.730Z,10.43
2023-03-12T19:15:38.996Z,12.90
2023-03-12T19:18:06.299Z,10.43
2023-03-12T19:20:35.837Z,11.45
2023-03-12T19:23:03.066Z,11.32
2023-03-12T19:25:30.296Z,11.30
2023-03-12T19:27:57.638Z,10.65
2023-03-12T19:30:30.452Z,11.00
2023-03-12T19:32:57.868Z,11.50
2023-03-12T19:35:28.055Z,11.38
2023-03-12T19:37:56.018Z,12.38
2023-03-12T19:40:23.236Z,13.43
2023-03-12T19:42:50.544Z,13.05
2023-03-12T19:45:19.174Z,12.90
2023-03-12T19:47:47.158Z,12.85
2023-03-12T19:50:14.779Z,12.85
2023-03-12T19:52:41.952Z,13.20
2023-03-12T19:55:11.094Z,14.45
2023-03-12T19:57:38.647Z,12.48
2023-03-12T20:00:09.780Z,13.55
2023-03-12T20:02:37.843Z,13.98
2023-03-12T20:05:06.181Z,15.00
2023-03-12T20:07:33.660Z,13.02
2023-03-12T20:10:00.926Z,13.02
2023-03-12T20:12:28.292Z,13.32
2023-03-12T20:14:55.511Z,13.40
2023-03-12T20:17:22.749Z,12.77
2023-03-12T20:19:49.966Z,13.32
2023-03-12T20:22:17.182Z,11.93
2023-03-12T20:24:44.425Z,12.95
2023-03-12T20:27:11.650Z,11.00
2023-03-12T20:29:38.937Z,11.05
2023-03-12T20:32:06.264Z,12.65
2023-03-12T20:34:33.484Z,10.10
2023-03-12T20:37:00.747Z,9.52
2023-03-12T20:39:27.931Z,11.05
2023-03-12T20:41:55.128Z,10.02
2023-03-12T20:44:22.329Z,10.73
2023-03-12T20:46:49.614Z,8.75
2023-03-12T20:49:16.944Z,9.80
2023-03-12T20:51:46.507Z,9.25
2023-03-12T20:54:13.810Z,8.88
2023-03-12T20:56:43.694Z,8.60
2023-03-12T20:59:14.102Z,8.38
2023-03-12T21:01:44.298Z,9.13
2023-03-12T21:04:11.820Z,8.98
2023-03-12T21:06:39.126Z,7.90
2023-03-12T21:09:07.304Z,7.25
2023-03-12T21:11:34.601Z,7.50
2023-03-12T21:14:01.909Z,7.75
2023-03-12T21:16:29.236Z,6.93
2023-03-12T21:18:59.016Z,7.38
2023-03-12T21:21:26.337Z,7.07
2023-03-12T21:23:53.578Z,7.07
2023-03-12T21:26:24.616Z,7.13
2023-03-12T21:28:52.052Z,6.82
2023-03-12T21:31:19.456Z,6.28
2023-03-12T21:33:46.829Z,6.72
2023-03-12T21:36:14.838Z,8.45
2023-03-12T21:38:45.380Z,6.72
2023-03-12T21:41:14.186Z,6.13
2023-03-12T21:43:41.657Z,7.32
2023-03-12T21:46:27.961Z,6.75
2023-03-12T21:48:55.402Z,7.03
2023-03-12T21:51:22.862Z,7.15
2023-03-12T21:53:54.431Z,6.38
2023-03-12T21:56:24.241Z,6.78
2023-03-12T21:58:51.618Z,6.72
2023-03-12T22:01:19.228Z,6.63
2023-03-12T22:03:47.278Z,7.97
2023-03-12T22:06:15.463Z,8.07
2023-03-12T22:08:43.598Z,6.85
2023-03-12T22:11:11.396Z,7.22
2023-03-12T22:13:38.779Z,6.30
2023-03-12T22:16:08.212Z,7.57
2023-03-12T22:18:39.013Z,7.35
2023-03-12T22:21:07.746Z,6.55
2023-03-12T22:23:38.366Z,6.63
2023-03-12T22:26:06.343Z,7.10
2023-03-12T22:28:33.826Z,6.65
2023-03-12T22:31:02.388Z,7.70
2023-03-12T22:33:29.883Z,7.80
2023-03-12T22:35:57.147Z,6.95
2023-03-12T22:38:24.978Z,7.25
2023-03-12T22:40:54.959Z,6.40
2023-03-12T22:43:22.782Z,6.82
2023-03-12T22:45:53.248Z,6.45
2023-03-12T22:48:20.563Z,5.78
2023-03-12T22:50:54.167Z,6.53
2023-03-12T22:53:30.441Z,6.28
2023-03-12T22:56:07.722Z,5.53
2023-03-12T22:58:35.084Z,5.20
2023-03-12T23:01:03.739Z,6.93
2023-03-12T23:03:31.533Z,7.22
2023-03-12T23:05:59.153Z,5.90
2023-03-12T23:08:26.784Z,5.68
2023-03-12T23:11:01.833Z,7.43
2023-03-12T23:13:29.983Z,5.82
2023-03-12T23:16:02.078Z,6.10
2023-03-12T23:18:29.723Z,5.50
2023-03-12T23:21:04.889Z,5.85
2023-03-12T23:23:32.541Z,6.80
2023-03-12T23:26:01.072Z,5.18
2023-03-12T23:28:29.063Z,7.03
2023-03-12T23:31:00.798Z,6.35
2023-03-12T23:33:29.163Z,6.22
2023-03-12T23:35:57.657Z,5.95
2023-03-12T23:38:25.636Z,6.60
2023-03-12T23:40:52.997Z,6.03
2023-03-12T23:43:20.716Z,7.03
2023-03-12T23:45:47.957Z,6.95
2023-03-12T23:48:15.191Z,6.18
2023-03-12T23:50:42.545Z,6.22
2023-03-12T23:53:09.799Z,6.45
2023-03-12T23:55:37.026Z,6.07
2023-03-12T23:58:04.288Z,6.72
